Time;durP1;ratioP1;P1;durP2;ratioP2;P2;SDS_P1;SDS_P2;PMS_P1;PMS_P2;Temp;Humidity;BMP_temperature;BMP_pressure;BME280_temperature;BME280_humidity;BME280_pressure;Samples;Min_cycle;Max_cycle;Signal;HPM_P1;HPM_P2
2021/12/15 00:00:55;;;;;;;26.33;13.55;;;6.60;99.90;;;;;;5026372;28;20032;-80
2021/12/15 00:03:21;;;;;;;26.10;13.65;;;6.60;99.90;;;;;;5027996;28;20025;-79
2021/12/15 00:05:49;;;;;;;27.83;13.13;;;6.50;99.90;;;;;;5028065;28;20121;-82
2021/12/15 00:08:14;;;;;;;25.20;14.02;;;6.60;99.90;;;;;;5029650;28;20025;-82
2021/12/15 00:10:42;;;;;;;25.20;12.63;;;6.60;99.90;;;;;;5026540;28;20052;-82
2021/12/15 00:13:10;;;;;;;29.40;15.13;;;6.60;99.90;;;;;;5027598;28;20030;-79
2021/12/15 00:15:36;;;;;;;26.55;14.15;;;6.70;99.90;;;;;;5027583;28;20410;-82
2021/12/15 00:18:02;;;;;;;29.88;12.95;;;6.70;99.90;;;;;;5027729;28;20044;-82
2021/12/15 00:20:29;;;;;;;23.35;12.70;;;6.70;99.90;;;;;;5025924;28;20040;-79
2021/12/15 00:22:55;;;;;;;23.33;12.82;;;6.70;99.90;;;;;;5026398;28;20057;-78
2021/12/15 00:25:26;;;;;;;25.20;13.55;;;6.70;99.90;;;;;;5025727;28;20036;-85
2021/12/15 00:27:51;;;;;;;;;;;6.80;99.90;;;;;;5020775;28;20057;-76
2021/12/15 00:30:18;;;;;;;26.70;14.05;;;6.80;99.90;;;;;;5022712;28;20006;-82
2021/12/15 00:32:43;;;;;;;26.45;13.00;;;6.70;99.90;;;;;;5018875;28;20080;-80
2021/12/15 00:35:11;;;;;;;27.35;14.18;;;6.70;99.90;;;;;;5019075;28;20033;-81
2021/12/15 00:37:37;;;;;;;26.30;13.32;;;6.80;99.90;;;;;;5020900;28;20415;-81
2021/12/15 00:40:09;;;;;;;24.85;13.32;;;7.10;99.90;;;;;;5024828;28;20061;-78
2021/12/15 00:42:35;;;;;;;24.58;13.40;;;6.70;99.90;;;;;;5027096;28;20024;-79
2021/12/15 00:45:02;;;;;;;28.92;13.50;;;6.80;99.90;;;;;;5027879;28;20021;-84
2021/12/15 00:47:28;;;;;;;25.08;13.18;;;6.70;99.90;;;;;;5023656;28;20483;-82
2021/12/15 00:49:54;;;;;;;27.75;13.68;;;6.80;99.90;;;;;;5023240;28;20025;-80
2021/12/15 00:52:19;;;;;;;25.27;13.00;;;6.80;99.90;;;;;;5020029;28;20093;-80
2021/12/15 00:54:45;;;;;;;24.80;12.55;;;6.70;99.90;;;;;;5039212;28;20045;-79
2021/12/15 00:57:13;;;;;;;24.20;12.88;;;6.70;99.90;;;;;;5026529;28;20026;-79
2021/12/15 00:59:39;;;;;;;27.73;12.93;;;6.70;99.90;;;;;;5024831;28;20049;-79
2021/12/15 01:02:07;;;;;;;25.92;13.07;;;6.70;99.90;;;;;;5024932;28;20092;-80
2021/12/15 01:04:34;;;;;;;31.08;15.20;;;7.50;99.90;;;;;;5027386;28;20040;-81
2021/12/15 01:07:04;;;;;;;26.02;14.27;;;6.70;99.90;;;;;;5024150;28;20053;-82
2021/12/15 01:09:43;;;;;;;25.02;13.15;;;6.70;99.90;;;;;;5023564;28;20029;-81
2021/12/15 01:20:31;;;;;;;28.40;13.75;;;6.70;99.90;;;;;;5024547;28;20117;-82
2021/12/15 01:23:04;;;;;;;28.35;14.25;;;6.80;99.90;;;;;;5027678;28;20044;-81
2021/12/15 01:25:34;;;;;;;23.42;12.52;;;6.70;99.90;;;;;;5017928;28;20491;-79
2021/12/15 01:27:59;;;;;;;26.35;13.00;;;6.80;99.90;;;;;;5025452;28;20065;-81
2021/12/15 01:30:30;;;;;;;25.63;13.30;;;6.80;99.90;;;;;;5026693;28;20131;-80
2021/12/15 01:32:58;;;;;;;25.75;13.35;;;6.80;99.90;;;;;;5025322;28;20025;-81
2021/12/15 01:35:24;;;;;;;28.98;13.60;;;6.80;99.90;;;;;;5024228;28;20105;-77
2021/12/15 01:37:50;;;;;;;27.27;13.43;;;6.80;99.90;;;;;;5038264;28;20104;-80
2021/12/15 01:40:28;;;;;;;26.75;13.48;;;6.80;99.90;;;;;;5025878;28;20137;-79
2021/12/15 01:42:54;;;;;;;26.67;13.00;;;6.90;99.90;;;;;;5023093;28;20052;-79
2021/12/15 01:48:10;;;;;;;28.67;13.82;;;6.80;99.90;;;;;;5028088;28;20083;-80
2021/12/15 01:50:36;;;;;;;24.35;13.07;;;6.70;99.90;;;;;;5022118;28;20022;-80
2021/12/15 01:53:04;;;;;;;27.45;14.20;;;6.80;99.90;;;;;;5022813;28;20044;-80
2021/12/15 01:55:30;;;;;;;29.52;13.27;;;6.70;99.90;;;;;;5024262;28;20719;-81
2021/12/15 01:57:56;;;;;;;27.92;13.13;;;6.80;99.90;;;;;;5019375;28;20476;-80
2021/12/15 02:00:25;;;;;;;30.30;14.57;;;7.00;99.90;;;;;;5028203;28;20040;-79
2021/12/15 02:02:53;;;;;;;25.77;13.73;;;6.80;99.90;;;;;;5025902;28;20049;-80
2021/12/15 02:05:19;;;;;;;27.52;13.40;;;6.70;99.90;;;;;;5026060;28;20025;-78
2021/12/15 02:07:47;;;;;;;27.67;14.38;;;6.70;99.90;;;;;;5024692;28;20566;-79
2021/12/15 02:10:14;;;;;;;25.98;13.38;;;6.70;99.90;;;;;;5026332;28;20056;-81
2021/12/15 02:12:42;;;;;;;29.27;14.38;;;6.70;99.90;;;;;;5023455;28;20052;-78
2021/12/15 02:15:16;;;;;;;27.60;13.10;;;6.70;99.90;;;;;;5023789;28;20030;-80
2021/12/15 02:17:42;;;;;;;29.90;14.50;;;6.80;99.90;;;;;;5025455;28;20036;-80
2021/12/15 02:20:10;;;;;;;29.88;14.90;;;6.80;99.90;;;;;;5025336;28;20044;-79
2021/12/15 02:22:36;;;;;;;25.83;14.02;;;6.80;99.90;;;;;;5028215;28;20061;-79
2021/12/15 02:25:04;;;;;;;24.20;12.90;;;7.20;99.90;;;;;;5025195;28;20049;-80
2021/12/15 02:27:34;;;;;;;28.60;14.18;;;6.80;99.90;;;;;;5024109;28;20033;-80
2021/12/15 02:30:16;;;;;;;28.25;13.25;;;6.80;99.90;;;;;;5023661;28;20025;-79
2021/12/15 02:32:58;;;;;;;25.95;13.38;;;6.70;99.90;;;;;;5025631;28;20399;-79
2021/12/15 02:38:08;;;;;;;25.75;13.23;;;6.80;99.90;;;;;;5024975;28;20426;-80
2021/12/15 02:40:34;;;;;;;28.95;13.48;;;6.70;99.90;;;;;;5024477;28;20025;-82
2021/12/15 02:43:00;;;;;;;25.48;13.35;;;6.80;99.90;;;;;;5025675;28;20033;-79
2021/12/15 02:45:26;;;;;;;25.83;14.02;;;6.70;99.90;;;;;;5029410;28;20120;-81
2021/12/15 02:47:53;;;;;;;25.30;12.63;;;6.70;99.90;;;;;;5027719;28;20117;-81
2021/12/15 02:50:23;;;;;;;25.77;13.05;;;6.70;99.90;;;;;;5023385;28;20503;-77
2021/12/15 02:52:50;;;;;;;26.30;12.87;;;6.70;99.90;;;;;;5024985;28;20017;-80
2021/12/15 02:55:16;;;;;;;29.70;14.63;;;6.70;99.90;;;;;;5027224;28;20057;-81
2021/12/15 02:57:43;;;;;;;27.42;13.98;;;6.70;99.90;;;;;;5027000;28;20112;-80
2021/12/15 03:00:23;;;;;;;27.08;14.32;;;6.60;99.90;;;;;;5023442;28;20018;-83
2021/12/15 03:05:51;;;;;;;26.98;13.65;;;6.60;99.90;;;;;;5025562;28;20360;-80
2021/12/15 03:08:36;;;;;;;22.65;13.82;;;6.60;99.90;;;;;;5029295;28;20060;-80
2021/12/15 03:16:29;;;;;;;27.58;13.77;;;6.50;99.90;;;;;;5023385;28;20113;-79
2021/12/15 03:18:57;;;;;;;25.13;13.27;;;6.40;99.90;;;;;;5017061;28;20022;-83
2021/12/15 03:21:26;;;;;;;28.23;13.82;;;6.50;99.90;;;;;;5025144;28;20033;-83
2021/12/15 03:23:58;;;;;;;25.75;12.25;;;6.40;99.90;;;;;;5026528;28;20038;-81
2021/12/15 03:26:35;;;;;;;24.55;13.02;;;6.30;99.90;;;;;;5021958;28;20099;-80
2021/12/15 03:35:02;;;;;;;32.78;16.17;;;6.20;99.90;;;;;;5021713;28;20090;-79
2021/12/15 03:37:25;;;;;;;26.52;13.30;;;6.20;99.90;;;;;;5020689;28;20030;-82
2021/12/15 03:40:08;;;;;;;24.42;12.40;;;6.20;99.90;;;;;;5028810;28;20435;-81
2021/12/15 03:42:44;;;;;;;24.50;12.00;;;6.20;99.90;;;;;;5030051;28;20368;-80
2021/12/15 03:45:16;;;;;;;23.67;12.15;;;6.10;99.90;;;;;;5041978;28;20067;-83
2021/12/15 03:47:45;;;;;;;24.77;12.23;;;6.10;99.90;;;;;;5030448;28;20026;-81
2021/12/15 03:50:14;;;;;;;29.83;13.52;;;6.10;99.90;;;;;;5026210;28;20029;-81
2021/12/15 03:52:39;;;;;;;22.73;12.13;;;6.00;99.90;;;;;;5042828;28;20051;-82
2021/12/15 03:55:07;;;;;;;25.40;12.07;;;6.00;99.90;;;;;;5031298;28;20410;-82
2021/12/15 03:57:33;;;;;;;25.45;13.57;;;6.00;99.90;;;;;;5030523;28;20025;-81
2021/12/15 03:59:59;;;;;;;23.80;12.13;;;6.00;99.90;;;;;;5027345;28;20392;-82
2021/12/15 04:02:25;;;;;;;28.50;12.27;;;6.00;99.90;;;;;;5029349;28;20032;-82
2021/12/15 04:04:52;;;;;;;23.70;12.45;;;6.00;99.90;;;;;;5030049;28;20428;-80
2021/12/15 04:07:20;;;;;;;26.60;13.18;;;6.50;99.90;;;;;;5026802;28;20519;-79
2021/12/15 04:09:48;;;;;;;27.98;13.38;;;5.80;99.90;;;;;;5025651;28;20025;-79
2021/12/15 04:12:14;;;;;;;25.75;12.57;;;5.80;99.90;;;;;;5029331;28;20687;-84
2021/12/15 04:14:44;;;;;;;26.30;12.77;;;5.80;99.90;;;;;;5029730;28;20136;-79
2021/12/15 04:17:26;;;;;;;27.45;13.27;;;5.80;99.90;;;;;;5039337;28;20029;-81
2021/12/15 04:19:55;;;;;;;26.80;13.07;;;5.80;99.90;;;;;;5046882;28;20153;-80
2021/12/15 04:22:23;;;;;;;27.08;13.98;;;5.80;99.90;;;;;;5027420;28;20292;-84
2021/12/15 04:24:49;;;;;;;25.70;12.98;;;5.80;99.90;;;;;;5032028;28;20446;-78
2021/12/15 04:27:15;;;;;;;30.35;13.32;;;5.70;99.90;;;;;;5030612;28;20036;-83
2021/12/15 04:29:40;;;;;;;28.63;13.98;;;5.70;99.90;;;;;;5028303;28;20415;-81
2021/12/15 04:32:13;;;;;;;26.67;13.10;;;5.70;99.90;;;;;;5027388;28;20029;-78
2021/12/15 04:34:38;;;;;;;34.47;13.88;;;5.60;99.90;;;;;;5030787;28;20069;-80
2021/12/15 04:37:04;;;;;;;30.38;13.70;;;6.60;99.90;;;;;;5030554;28;20040;-79
2021/12/15 04:39:30;;;;;;;31.35;14.45;;;5.60;99.90;;;;;;5030052;28;20025;-81
2021/12/15 04:41:57;;;;;;;27.70;13.23;;;5.60;99.90;;;;;;5022302;28;20113;-83
2021/12/15 04:44:28;;;;;;;32.20;12.73;;;7.00;99.90;;;;;;5027421;28;20040;-79
2021/12/15 04:47:01;;;;;;;32.63;13.55;;;5.50;99.90;;;;;;5026751;28;20037;-83
2021/12/15 04:49:32;;;;;;;27.20;12.48;;;6.70;99.90;;;;;;5022929;28;20029;-83
2021/12/15 04:52:00;;;;;;;29.17;13.35;;;5.70;99.90;;;;;;5025679;28;20036;-82
2021/12/15 04:54:27;;;;;;;30.48;13.20;;;5.60;99.90;;;;;;5042349;28;20028;-81
2021/12/15 04:56:53;;;;;;;30.25;13.93;;;5.50;99.90;;;;;;5042591;28;20030;-83
2021/12/15 04:59:19;;;;;;;28.15;14.38;;;5.50;99.90;;;;;;5023947;28;20045;-82
2021/12/15 05:01:46;;;;;;;31.73;14.48;;;5.50;99.90;;;;;;5026836;28;20144;-83
2021/12/15 05:04:13;;;;;;;33.08;13.82;;;5.50;99.90;;;;;;5044570;28;20030;-83
2021/12/15 05:06:39;;;;;;;30.45;14.95;;;5.50;99.90;;;;;;5032100;28;20025;-79
2021/12/15 05:09:06;;;;;;;31.80;14.18;;;5.50;99.90;;;;;;5048290;28;20376;-81
2021/12/15 05:11:33;;;;;;;35.53;15.18;;;5.50;99.90;;;;;;5032752;28;20017;-79
2021/12/15 05:13:58;;;;;;;34.53;14.45;;;5.90;99.90;;;;;;5030131;28;20026;-81
2021/12/15 05:16:24;;;;;;;32.03;14.90;;;5.40;99.90;;;;;;5032438;28;20025;-80
2021/12/15 05:18:50;;;;;;;33.20;14.45;;;5.40;99.90;;;;;;5026050;28;20117;-78
2021/12/15 05:21:17;;;;;;;48.10;16.27;;;6.20;99.90;;;;;;5030188;28;20061;-78
2021/12/15 05:23:45;;;;;;;39.97;15.75;;;5.10;99.90;;;;;;5028095;28;20033;-80
2021/12/15 05:26:12;;;;;;;63.65;16.20;;;5.30;99.90;;;;;;5028961;28;20033;-82
2021/12/15 05:28:38;;;;;;;46.45;16.00;;;5.40;99.90;;;;;;5029249;28;20033;-81
2021/12/15 05:31:04;;;;;;;52.45;16.48;;;5.30;99.90;;;;;;5024870;28;20025;-80
2021/12/15 05:33:29;;;;;;;80.85;17.17;;;5.30;99.90;;;;;;5027943;28;20514;-77
2021/12/15 05:35:56;;;;;;;49.22;16.17;;;5.30;99.90;;;;;;5027903;28;20554;-80
2021/12/15 05:38:24;;;;;;;82.70;18.42;;;5.30;99.90;;;;;;5033648;28;20024;-80
2021/12/15 05:40:50;;;;;;;65.90;16.17;;;5.30;99.90;;;;;;5031138;28;20518;-78
2021/12/15 05:43:16;;;;;;;115.43;16.45;;;5.20;99.90;;;;;;5032842;28;20495;-80
2021/12/15 05:45:42;;;;;;;62.90;16.90;;;5.20;99.90;;;;;;5039722;28;20058;-79
2021/12/15 05:48:11;;;;;;;62.15;16.95;;;5.70;99.90;;;;;;5036955;28;20025;-82
2021/12/15 05:50:37;;;;;;;205.57;20.90;;;5.20;99.90;;;;;;5027863;28;20097;-80
2021/12/15 05:53:04;;;;;;;111.20;18.42;;;5.90;99.90;;;;;;5037591;28;20029;-82
2021/12/15 05:55:30;;;;;;;158.25;18.23;;;5.00;99.90;;;;;;5034589;28;20041;-79
2021/12/15 05:57:56;;;;;;;91.30;16.90;;;4.90;99.90;;;;;;5030435;28;20030;-81
2021/12/15 06:00:25;;;;;;;71.07;15.68;;;4.90;99.90;;;;;;5023812;28;20036;-81
2021/12/15 06:02:52;;;;;;;74.47;16.52;;;4.90;99.90;;;;;;5027659;28;20112;-82
2021/12/15 06:05:19;;;;;;;92.20;16.98;;;;;;;;;;5025989;28;20109;-78
2021/12/15 06:07:45;;;;;;;97.28;17.42;;;4.90;99.90;;;;;;5031660;28;20029;-79
2021/12/15 06:10:16;;;;;;;186.65;19.35;;;4.90;99.90;;;;;;5029659;28;20065;-80
2021/12/15 06:12:43;;;;;;;95.93;17.85;;;4.90;99.90;;;;;;5021333;28;20033;-78
2021/12/15 06:15:09;;;;;;;68.32;18.58;;;5.40;99.90;;;;;;5011028;28;21176;-83
2021/12/15 06:17:35;;;;;;;146.18;18.80;;;5.50;99.90;;;;;;5023099;28;20052;-80
2021/12/15 06:20:03;;;;;;;64.80;17.70;;;4.90;99.90;;;;;;5021001;28;20044;-81
2021/12/15 06:22:31;;;;;;;78.20;16.02;;;4.90;99.90;;;;;;5020174;28;20040;-81
2021/12/15 06:24:57;;;;;;;53.50;16.40;;;5.10;99.90;;;;;;5018574;28;20541;-83
2021/12/15 06:27:24;;;;;;;65.47;16.20;;;5.00;99.90;;;;;;5015098;28;20017;-79
2021/12/15 06:29:52;;;;;;;54.08;16.50;;;5.00;99.90;;;;;;5016699;28;20021;-78
2021/12/15 06:32:20;;;;;;;87.60;16.65;;;4.90;99.90;;;;;;5021496;28;20021;-83
2021/12/15 06:34:45;;;;;;;66.47;16.17;;;5.60;99.90;;;;;;5019948;28;20093;-79
2021/12/15 06:37:12;;;;;;;58.15;15.73;;;4.90;99.90;;;;;;5017080;28;20124;-82
2021/12/15 06:39:38;;;;;;;63.63;16.45;;;4.90;99.90;;;;;;5025581;28;20056;-81
2021/12/15 06:42:05;;;;;;;45.90;15.27;;;4.90;99.90;;;;;;5026769;28;20144;-80
2021/12/15 06:44:31;;;;;;;42.53;14.48;;;4.90;99.90;;;;;;5028274;28;20057;-78
2021/12/15 07:00:33;;;;;;;26.73;12.98;;;4.70;99.90;;;;;;5025596;28;20036;-81
2021/12/15 07:03:00;;;;;;;24.17;11.75;;;4.60;99.90;;;;;;5032569;28;20064;-79
2021/12/15 07:05:26;;;;;;;21.42;11.68;;;4.60;99.90;;;;;;5032937;28;20021;-77
2021/12/15 07:07:53;;;;;;;22.85;11.27;;;4.60;99.90;;;;;;5028685;28;20041;-81
2021/12/15 07:10:23;;;;;;;19.90;11.27;;;4.60;99.90;;;;;;5032256;28;20030;-84
2021/12/15 07:12:50;;;;;;;18.15;11.02;;;4.70;99.90;;;;;;5035044;28;20030;-82
2021/12/15 07:15:16;;;;;;;16.33;9.18;;;4.70;99.90;;;;;;5031979;28;20341;-83
2021/12/15 07:17:46;;;;;;;18.20;9.15;;;4.80;99.90;;;;;;5037288;28;20030;-80
2021/12/15 07:20:35;;;;;;;19.58;10.38;;;4.80;99.90;;;;;;5039466;28;20025;-80
2021/12/15 07:23:03;;;;;;;18.77;10.35;;;7.10;99.90;;;;;;5035564;28;20391;-82
2021/12/15 07:25:30;;;;;;;18.45;10.13;;;5.00;99.90;;;;;;5036716;28;20022;-81
2021/12/15 07:27:56;;;;;;;17.25;10.10;;;4.90;99.90;;;;;;5033019;28;20026;-83
2021/12/15 07:30:22;;;;;;;19.42;9.82;;;4.90;99.90;;;;;;5034659;28;20025;-81
2021/12/15 07:32:47;;;;;;;17.67;9.30;;;5.50;99.90;;;;;;5036136;28;20068;-84
2021/12/15 07:35:15;;;;;;;20.67;9.80;;;5.00;99.90;;;;;;5025259;28;20037;-81
2021/12/15 07:37:41;;;;;;;25.73;11.23;;;5.10;99.90;;;;;;5034362;28;20398;-82
2021/12/15 07:40:12;;;;;;;19.08;8.63;;;4.80;99.90;;;;;;5029774;28;20560;-84
2021/12/15 07:42:53;;;;;;;18.52;9.02;;;5.00;99.90;;;;;;5032719;28;20052;-84
2021/12/15 07:45:22;;;;;;;16.27;9.88;;;;;;;;;;5031925;28;20038;-83
2021/12/15 07:47:55;;;;;;;17.90;9.25;;;5.10;99.90;;;;;;5032149;28;20584;-80
2021/12/15 07:50:21;;;;;;;20.45;10.65;;;5.20;99.90;;;;;;5032224;28;20030;-81
2021/12/15 07:52:51;;;;;;;21.10;9.98;;;5.30;99.90;;;;;;5032997;28;20034;-81
2021/12/15 07:55:18;;;;;;;16.42;9.75;;;5.30;99.90;;;;;;5031009;28;20045;-82
2021/12/15 07:57:45;;;;;;;18.48;10.05;;;5.30;99.90;;;;;;5027219;28;20292;-81
2021/12/15 08:00:13;;;;;;;17.63;10.32;;;5.30;99.90;;;;;;5025926;28;20049;-85
2021/12/15 08:02:38;;;;;;;22.77;10.50;;;5.40;99.90;;;;;;5032589;28;20034;-84
2021/12/15 08:05:06;;;;;;;19.20;11.35;;;5.40;99.90;;;;;;5031885;28;20056;-85
2021/12/15 08:07:31;;;;;;;21.02;11.88;;;5.40;99.90;;;;;;5032383;28;20534;-82
2021/12/15 08:09:57;;;;;;;20.85;11.35;;;6.20;99.90;;;;;;5033360;28;20057;-83
2021/12/15 08:12:23;;;;;;;21.08;10.93;;;;;;;;;;5029804;28;20038;-80
2021/12/15 08:14:49;;;;;;;20.40;11.18;;;5.40;99.90;;;;;;5033907;28;20091;-79
2021/12/15 08:17:15;;;;;;;21.52;12.23;;;5.40;99.90;;;;;;5033969;28;20117;-80
2021/12/15 08:19:41;;;;;;;24.15;11.77;;;;;;;;;;5031460;28;20311;-80
2021/12/15 08:22:07;;;;;;;20.77;11.55;;;5.60;99.90;;;;;;5035267;28;20281;-79
2021/12/15 08:24:33;;;;;;;21.52;11.93;;;5.60;99.90;;;;;;5027527;28;20102;-82
2021/12/15 08:26:59;;;;;;;20.15;11.80;;;5.60;99.90;;;;;;5031881;28;20121;-81
2021/12/15 08:29:25;;;;;;;18.73;11.57;;;6.10;99.90;;;;;;5028673;28;20076;-80
2021/12/15 08:31:51;;;;;;;20.98;11.45;;;5.80;99.90;;;;;;5033042;28;20053;-78
2021/12/15 08:34:16;;;;;;;20.10;12.10;;;5.60;99.90;;;;;;5031444;28;20193;-81
2021/12/15 08:36:42;;;;;;;20.70;11.95;;;5.60;99.90;;;;;;5029606;28;20030;-82
2021/12/15 08:39:11;;;;;;;20.17;11.65;;;5.80;99.90;;;;;;5030011;28;20029;-79
2021/12/15 08:41:37;;;;;;;21.20;11.75;;;5.60;99.90;;;;;;5032036;28;20036;-79
2021/12/15 08:44:08;;;;;;;22.77;11.32;;;5.60;99.90;;;;;;5030794;28;20025;-82
2021/12/15 08:46:39;;;;;;;17.38;11.20;;;5.60;99.90;;;;;;5025948;28;20030;-80
2021/12/15 08:49:05;;;;;;;;;;;5.70;99.90;;;;;;5028061;28;20028;-80
2021/12/15 08:51:34;;;;;;;18.17;9.73;;;5.70;99.90;;;;;;5020076;28;19952;-81
2021/12/15 08:54:05;;;;;;;16.00;9.40;;;5.70;99.90;;;;;;5029120;28;20061;-80
2021/12/15 08:56:36;;;;;;;18.27;10.27;;;5.90;99.90;;;;;;5023044;28;20040;-81
2021/12/15 08:59:02;;;;;;;;;;;6.00;99.90;;;;;;5026465;28;20152;-81
2021/12/15 09:01:28;;;;;;;20.60;10.30;;;6.40;99.90;;;;;;5023930;28;20594;-77
2021/12/15 09:03:54;;;;;;;22.33;11.10;;;6.20;99.90;;;;;;5024561;28;20026;-83
2021/12/15 09:06:20;;;;;;;17.80;9.88;;;6.20;99.90;;;;;;5025689;28;20055;-79
2021/12/15 09:08:46;;;;;;;19.20;9.75;;;6.20;99.90;;;;;;5031937;28;20021;-81
2021/12/15 09:11:16;;;;;;;17.98;9.93;;;6.20;99.90;;;;;;5026283;28;20044;-81
2021/12/15 09:13:44;;;;;;;18.65;10.20;;;6.80;99.90;;;;;;5025714;28;20029;-81
2021/12/15 09:16:11;;;;;;;22.58;11.57;;;6.20;99.90;;;;;;5031978;28;20056;-81
2021/12/15 09:18:40;;;;;;;20.25;10.80;;;6.20;99.90;;;;;;5022318;28;20483;-80
2021/12/15 09:21:07;;;;;;;19.73;11.15;;;6.20;99.90;;;;;;5028570;28;20037;-80
2021/12/15 09:23:34;;;;;;;17.83;10.40;;;6.20;99.90;;;;;;5030484;28;20560;-81
2021/12/15 09:26:02;;;;;;;18.50;10.15;;;6.30;99.90;;;;;;5027693;28;20034;-81
2021/12/15 09:28:30;;;;;;;20.77;11.05;;;6.60;99.90;;;;;;5024374;28;20026;-80
2021/12/15 09:30:55;;;;;;;19.00;10.23;;;6.30;99.90;;;;;;5024322;28;20084;-79
2021/12/15 09:33:24;;;;;;;19.85;12.27;;;6.30;99.90;;;;;;5024974;28;20491;-79
2021/12/15 09:35:51;;;;;;;19.88;10.60;;;6.50;99.90;;;;;;5022144;28;20131;-81
2021/12/15 09:38:19;;;;;;;20.35;11.50;;;6.40;99.90;;;;;;5028869;28;20173;-78
2021/12/15 09:40:47;;;;;;;20.85;11.88;;;6.40;99.90;;;;;;5026131;28;20079;-79
2021/12/15 09:43:14;;;;;;;20.63;11.32;;;6.50;99.90;;;;;;5026425;28;20520;-79
2021/12/15 09:45:52;;;;;;;21.83;10.88;;;6.60;99.90;;;;;;5026537;28;20035;-80
2021/12/15 09:57:07;;;;;;;18.48;11.55;;;6.70;99.90;;;;;;5026276;28;20039;-82
2021/12/15 10:02:34;;;;;;;17.88;10.70;;;6.90;99.90;;;;;;5032537;28;20048;-82
2021/12/15 10:05:14;;;;;;;19.63;11.60;;;6.80;99.90;;;;;;5025675;28;20037;-78
2021/12/15 10:19:17;;;;;;;18.50;11.10;;;7.10;99.90;;;;;;5027841;28;20087;-81
2021/12/15 10:21:31;;;;;;;19.20;10.85;;;7.10;99.90;;;;;;5026449;28;20407;-79
2021/12/15 10:23:57;;;;;;;21.52;10.95;;;7.10;99.90;;;;;;5025214;28;20487;-80
2021/12/15 10:26:24;;;;;;;18.77;11.63;;;7.20;99.90;;;;;;5026253;28;20075;-80
2021/12/15 10:28:52;;;;;;;19.95;12.48;;;7.30;99.90;;;;;;5024825;28;20018;-80
2021/12/15 10:31:24;;;;;;;22.25;12.75;;;7.40;99.90;;;;;;5026953;28;20036;-80
2021/12/15 10:33:55;;;;;;;24.08;13.98;;;7.30;99.90;;;;;;5027330;28;20025;-80
2021/12/15 10:36:29;;;;;;;21.70;13.15;;;7.30;99.90;;;;;;5028622;28;20037;-77
2021/12/15 10:38:59;;;;;;;22.38;12.00;;;8.00;99.90;;;;;;5021234;28;20029;-80
2021/12/15 10:41:27;;;;;;;24.10;14.07;;;7.50;99.90;;;;;;5027197;28;20029;-78
2021/12/15 10:44:00;;;;;;;29.63;15.38;;;7.40;99.90;;;;;;5024648;28;20036;-80
2021/12/15 10:46:38;;;;;;;24.90;12.88;;;7.50;99.90;;;;;;5024688;28;20518;-83
2021/12/15 10:49:07;;;;;;;18.88;11.75;;;7.50;99.90;;;;;;5025239;28;20057;-80
2021/12/15 10:51:36;;;;;;;16.90;10.27;;;7.60;99.90;;;;;;5027833;28;20049;-78
2021/12/15 10:54:06;;;;;;;20.08;11.52;;;7.60;99.90;;;;;;5030856;28;20299;-78
2021/12/15 10:56:37;;;;;;;17.15;9.80;;;7.60;99.90;;;;;;5043243;28;20041;-80
2021/12/15 10:59:05;;;;;;;;;;;7.70;99.90;;;;;;5031296;28;20123;-78
2021/12/15 11:01:51;;;;;;;15.50;8.95;;;7.70;99.90;;;;;;5026950;28;19919;-79
2021/12/15 11:04:38;;;;;;;16.95;9.10;;;7.80;99.90;;;;;;5021009;28;20411;-78
2021/12/15 11:07:23;;;;;;;14.82;8.38;;;7.80;99.90;;;;;;5033256;28;20084;-79
2021/12/15 11:09:55;;;;;;;12.93;7.63;;;7.90;99.90;;;;;;5031456;28;20022;-82
2021/12/15 11:12:40;;;;;;;12.98;8.50;;;7.90;99.90;;;;;;5027473;28;20026;-78
2021/12/15 11:15:11;;;;;;;11.15;7.07;;;8.00;99.90;;;;;;5034527;28;20491;-79
2021/12/15 11:17:39;;;;;;;10.50;7.03;;;7.90;99.90;;;;;;5024775;28;20033;-76
2021/12/15 11:20:17;;;;;;;11.00;7.30;;;7.90;99.90;;;;;;5035536;28;20033;-78
2021/12/15 11:22:45;;;;;;;13.38;8.07;;;7.80;99.90;;;;;;5026380;28;20033;-77
2021/12/15 11:25:52;;;;;;;14.07;8.85;;;7.90;99.90;;;;;;5041557;28;20266;-81
2021/12/15 11:28:29;;;;;;;12.07;7.20;;;8.00;99.90;;;;;;5024472;28;20033;-76
2021/12/15 11:31:06;;;;;;;12.38;7.25;;;8.00;99.90;;;;;;5026456;28;20167;-78
2021/12/15 11:33:51;;;;;;;13.05;7.82;;;9.30;99.90;;;;;;5028995;28;20063;-77
2021/12/15 11:36:25;;;;;;;14.52;8.30;;;8.10;99.90;;;;;;5028791;28;20495;-80
2021/12/15 11:38:57;;;;;;;12.90;6.88;;;8.10;99.90;;;;;;5028538;28;20033;-79
2021/12/15 11:41:26;;;;;;;14.10;8.85;;;8.10;99.90;;;;;;5031368;28;20036;-80
2021/12/15 11:43:58;;;;;;;11.15;6.00;;;8.00;99.90;;;;;;5030860;28;20028;-80
2021/12/15 11:46:40;;;;;;;17.88;11.80;;;8.00;99.90;;;;;;5025269;28;20022;-78
2021/12/15 11:49:22;;;;;;;12.88;8.25;;;7.90;99.90;;;;;;5023622;28;20087;-80
2021/12/15 11:51:58;;;;;;;11.68;7.43;;;8.00;99.90;;;;;;5023041;28;20032;-78
2021/12/15 11:54:24;;;;;;;11.73;7.20;;;8.00;99.90;;;;;;5026184;28;20117;-80
2021/12/15 11:56:53;;;;;;;11.48;7.43;;;8.00;99.90;;;;;;5027177;28;20045;-79
2021/12/15 11:59:19;;;;;;;9.98;6.28;;;;;;;;;;5020422;28;20061;-78
2021/12/15 12:01:57;;;;;;;17.55;8.18;;;8.00;99.90;;;;;;5025060;28;20108;-79
2021/12/15 12:04:23;;;;;;;16.13;7.82;;;8.00;99.90;;;;;;5026402;28;20033;-79
2021/12/15 12:06:52;;;;;;;10.68;6.40;;;8.20;99.90;;;;;;5022142;28;20018;-79
2021/12/15 12:09:20;;;;;;;10.88;5.90;;;9.40;99.90;;;;;;5022673;28;20079;-80
2021/12/15 12:11:54;;;;;;;11.52;6.15;;;8.20;99.90;;;;;;5025545;28;20130;-78
2021/12/15 12:14:38;;;;;;;12.40;6.50;;;9.60;99.90;;;;;;5024540;28;20033;-79
2021/12/15 12:17:12;;;;;;;9.27;6.00;;;8.20;99.90;;;;;;5027632;28;20088;-79
2021/12/15 12:19:40;;;;;;;10.07;6.30;;;;;;;;;;5028410;28;20483;-77
2021/12/15 12:22:06;;;;;;;10.65;5.95;;;;;;;;;;5028299;28;22295;-80
2021/12/15 12:24:34;;;;;;;9.35;6.07;;;8.30;99.90;;;;;;5022684;28;20045;-78
2021/12/15 12:27:00;;;;;;;10.48;6.70;;;8.30;99.90;;;;;;5020556;28;20077;-78
2021/12/15 12:29:26;;;;;;;11.20;6.38;;;8.30;99.90;;;;;;5022401;28;20057;-79
2021/12/15 12:31:52;;;;;;;10.05;5.38;;;8.30;99.90;;;;;;5023070;28;20018;-79
2021/12/15 12:34:19;;;;;;;9.75;5.78;;;8.30;99.90;;;;;;5030979;28;20040;-78
2021/12/15 12:36:44;;;;;;;10.13;6.28;;;8.40;99.90;;;;;;5025495;28;20987;-78
2021/12/15 12:39:14;;;;;;;12.50;6.05;;;8.50;99.90;;;;;;5025274;28;20037;-79
2021/12/15 12:41:45;;;;;;;9.93;5.72;;;8.60;99.90;;;;;;5030344;28;20124;-78
2021/12/15 12:44:13;;;;;;;9.20;5.63;;;8.60;99.90;;;;;;5027187;28;20021;-79
2021/12/15 12:46:55;;;;;;;9.90;5.53;;;8.60;99.90;;;;;;5025275;28;20022;-78
2021/12/15 13:01:16;;;;;;;7.15;4.03;;;8.80;99.90;;;;;;5018331;28;20528;-79
2021/12/15 13:03:47;;;;;;;6.80;4.25;;;8.80;99.90;;;;;;5027476;28;20051;-79
2021/12/15 13:06:14;;;;;;;7.25;3.75;;;8.80;99.90;;;;;;5029723;28;20013;-78
2021/12/15 13:08:48;;;;;;;10.07;4.95;;;8.80;99.90;;;;;;5019694;28;20053;-79
2021/12/15 13:11:20;;;;;;;8.13;4.20;;;8.80;99.90;;;;;;5023951;28;20049;-78
2021/12/15 13:13:50;;;;;;;6.10;3.83;;;8.80;99.90;;;;;;5015749;28;20080;-78
2021/12/15 13:16:34;;;;;;;10.27;4.70;;;8.70;99.90;;;;;;5029600;28;20030;-79
2021/12/15 13:19:17;;;;;;;8.32;4.60;;;8.80;99.90;;;;;;5028127;28;20030;-78
2021/12/15 13:21:47;;;;;;;9.60;4.80;;;8.70;99.90;;;;;;5023618;28;20029;-79
2021/12/15 13:30:46;;;;;;;7.88;4.43;;;8.80;99.90;;;;;;5011864;28;20056;-78
2021/12/15 13:33:27;;;;;;;7.65;4.35;;;8.80;99.90;;;;;;5022512;28;20021;-79
2021/12/15 13:35:55;;;;;;;;;;;8.70;99.90;;;;;;5026060;28;20029;-78
2021/12/15 13:38:36;;;;;;;7.00;4.07;;;8.70;99.90;;;;;;5025869;28;19964;-83
2021/12/15 13:41:26;;;;;;;6.47;4.05;;;8.70;99.90;;;;;;5027726;28;20029;-79
2021/12/15 13:44:04;;;;;;;8.52;4.22;;;11.00;99.90;;;;;;5038816;28;20117;-82
2021/12/15 13:46:58;;;;;;;7.43;4.25;;;8.80;99.90;;;;;;5035694;28;20032;-79
2021/12/15 13:49:44;;;;;;;7.93;5.07;;;8.90;99.90;;;;;;5030214;28;20029;-82
2021/12/15 13:52:31;;;;;;;5.95;3.80;;;8.90;99.90;;;;;;5021768;28;20030;-79
2021/12/15 13:55:20;;;;;;;8.65;4.55;;;8.90;99.90;;;;;;5016130;28;20491;-77
2021/12/15 13:57:45;;;;;;;6.45;4.45;;;8.90;99.90;;;;;;5016208;28;20033;-77
2021/12/15 14:00:25;;;;;;;5.35;3.50;;;8.80;99.90;;;;;;5020569;28;20035;-78
2021/12/15 14:03:06;;;;;;;5.85;3.63;;;8.80;99.90;;;;;;5023001;28;20048;-79
2021/12/15 14:05:34;;;;;;;;;;;8.90;99.90;;;;;;5027730;28;20029;-79
2021/12/15 14:08:07;;;;;;;5.65;3.55;;;8.80;99.90;;;;;;5027313;28;19913;-80
2021/12/15 14:10:32;;;;;;;6.10;3.97;;;8.80;99.90;;;;;;5039948;28;20025;-78
2021/12/15 14:13:02;;;;;;;5.93;3.45;;;8.80;99.90;;;;;;5028784;28;20449;-79
2021/12/15 14:15:37;;;;;;;6.13;3.50;;;8.70;99.90;;;;;;5027749;28;20256;-80
2021/12/15 14:18:09;;;;;;;5.93;3.60;;;8.70;99.90;;;;;;5032945;28;20148;-78